sensor_id;sensor_type;location;lat;lon;timestamp;temperature;humidity
9987;DHT22;5033;46.310;11.214;2023-04-25T00:00:07;9.20;99.90
9987;DHT22;5033;46.310;11.214;2023-04-25T00:02:34;9.20;99.90
9987;DHT22;5033;46.310;11.214;2023-04-25T00:05:01;9.20;99.90
9987;DHT22;5033;46.310;11.214;2023-04-25T00:07:29;9.20;99.90
9987;DHT22;5033;46.310;11.214;2023-04-25T00:09:56;9.10;99.90
9987;DHT22;5033;46.310;11.214;2023-04-25T00:12:23;9.10;99.90
9987;DHT22;5033;46.310;11.214;2023-04-25T00:14:50;9.10;99.90
9987;DHT22;5033;46.310;11.214;2023-04-25T00:17:19;9.10;99.90
9987;DHT22;5033;46.310;11.214;2023-04-25T00:19:47;9.00;99.90
9987;DHT22;5033;46.310;11.214;2023-04-25T00:22:15;9.00;99.90
9987;DHT22;5033;46.310;11.214;2023-04-25T00:24:43;9.00;99.90
9987;DHT22;5033;46.310;11.214;2023-04-25T00:27:09;9.00;99.90
9987;DHT22;5033;46.310;11.214;2023-04-25T00:29:37;9.00;99.90
9987;DHT22;5033;46.310;11.214;2023-04-25T00:32:04;9.00;99.90
9987;DHT22;5033;46.310;11.214;2023-04-25T00:34:32;9.00;99.90
9987;DHT22;5033;46.310;11.214;2023-04-25T00:37:00;9.10;99.90
9987;DHT22;5033;46.310;11.214;2023-04-25T00:39:28;9.10;99.90
9987;DHT22;5033;46.310;11.214;2023-04-25T00:41:55;9.20;99.90
9987;DHT22;5033;46.310;11.214;2023-04-25T00:44:24;9.20;99.90
9987;DHT22;5033;46.310;11.214;2023-04-25T00:46:52;9.10;99.90
9987;DHT22;5033;46.310;11.214;2023-04-25T00:49:20;9.00;99.90
9987;DHT22;5033;46.310;11.214;2023-04-25T00:51:49;9.00;99.90
9987;DHT22;5033;46.310;11.214;2023-04-25T00:54:16;8.90;99.90
9987;DHT22;5033;46.310;11.214;2023-04-25T00:56:44;8.90;99.90
9987;DHT22;5033;46.310;11.214;2023-04-25T00:59:11;8.90;99.90
9987;DHT22;5033;46.310;11.214;2023-04-25T01:01:39;8.90;99.90
9987;DHT22;5033;46.310;11.214;2023-04-25T01:04:07;8.90;99.90
9987;DHT22;5033;46.310;11.214;2023-04-25T01:06:34;8.90;99.90
9987;DHT22;5033;46.310;11.214;2023-04-25T01:09:03;9.00;99.90
9987;DHT22;5033;46.310;11.214;2023-04-25T01:11:30;9.00;99.90
9987;DHT22;5033;46.310;11.214;2023-04-25T01:13:57;9.00;99.90
9987;DHT22;5033;46.310;11.214;2023-04-25T01:16:24;9.00;99.90
9987;DHT22;5033;46.310;11.214;2023-04-25T01:18:52;9.00;99.90
9987;DHT22;5033;46.310;11.214;2023-04-25T01:21:21;9.00;99.90
9987;DHT22;5033;46.310;11.214;2023-04-25T01:23:48;9.00;99.90
9987;DHT22;5033;46.310;11.214;2023-04-25T01:26:15;9.00;99.90
9987;DHT22;5033;46.310;11.214;2023-04-25T01:28:43;8.90;99.90
9987;DHT22;5033;46.310;11.214;2023-04-25T01:31:11;8.80;99.90
9987;DHT22;5033;46.310;11.214;2023-04-25T01:33:38;8.80;99.90
9987;DHT22;5033;46.310;11.214;2023-04-25T01:36:06;8.70;99.90
9987;DHT22;5033;46.310;11.214;2023-04-25T01:38:35;8.70;99.90
9987;DHT22;5033;46.310;11.214;2023-04-25T01:41:02;8.60;99.90
9987;DHT22;5033;46.310;11.214;2023-04-25T01:43:29;8.60;99.90
9987;DHT22;5033;46.310;11.214;2023-04-25T01:45:57;8.50;99.90
9987;DHT22;5033;46.310;11.214;2023-04-25T01:48:24;8.50;99.90
9987;DHT22;5033;46.310;11.214;2023-04-25T01:50:51;8.40;99.90
9987;DHT22;5033;46.310;11.214;2023-04-25T01:53:18;8.40;99.90
9987;DHT22;5033;46.310;11.214;2023-04-25T01:55:47;8.40;99.90
9987;DHT22;5033;46.310;11.214;2023-04-25T01:58:14;8.40;99.90
9987;DHT22;5033;46.310;11.214;2023-04-25T02:00:41;8.50;99.90
9987;DHT22;5033;46.310;11.214;2023-04-25T02:03:08;8.50;99.90
9987;DHT22;5033;46.310;11.214;2023-04-25T02:05:36;8.50;99.90
9987;DHT22;5033;46.310;11.214;2023-04-25T02:08:05;8.50;99.90
9987;DHT22;5033;46.310;11.214;2023-04-25T02:10:32;8.40;99.90
9987;DHT22;5033;46.310;11.214;2023-04-25T02:13:01;8.40;99.90
9987;DHT22;5033;46.310;11.214;2023-04-25T02:15:28;8.40;99.90
9987;DHT22;5033;46.310;11.214;2023-04-25T02:17:55;8.40;99.90
9987;DHT22;5033;46.310;11.214;2023-04-25T02:20:24;8.40;99.90
9987;DHT22;5033;46.310;11.214;2023-04-25T02:22:51;8.40;99.90
9987;DHT22;5033;46.310;11.214;2023-04-25T02:25:19;8.40;99.90
9987;DHT22;5033;46.310;11.214;2023-04-25T02:27:46;8.40;99.90
9987;DHT22;5033;46.310;11.214;2023-04-25T02:30:15;8.40;99.90
9987;DHT22;5033;46.310;11.214;2023-04-25T02:32:42;8.30;99.90
9987;DHT22;5033;46.310;11.214;2023-04-25T02:35:09;8.30;99.90
9987;DHT22;5033;46.310;11.214;2023-04-25T02:37:38;8.30;99.90
9987;DHT22;5033;46.310;11.214;2023-04-25T02:40:06;8.30;99.90
9987;DHT22;5033;46.310;11.214;2023-04-25T02:42:33;8.20;99.90
9987;DHT22;5033;46.310;11.214;2023-04-25T02:45:01;8.20;99.90
9987;DHT22;5033;46.310;11.214;2023-04-25T02:47:30;8.20;99.90
9987;DHT22;5033;46.310;11.214;2023-04-25T02:49:57;8.20;99.90
9987;DHT22;5033;46.310;11.214;2023-04-25T02:52:24;8.20;99.90
9987;DHT22;5033;46.310;11.214;2023-04-25T02:54:51;8.20;99.90
9987;DHT22;5033;46.310;11.214;2023-04-25T02:57:18;8.20;99.90
9987;DHT22;5033;46.310;11.214;2023-04-25T02:59:45;8.20;99.90
9987;DHT22;5033;46.310;11.214;2023-04-25T03:02:13;8.20;99.90
9987;DHT22;5033;46.310;11.214;2023-04-25T03:04:41;8.20;99.90
9987;DHT22;5033;46.310;11.214;2023-04-25T03:07:08;8.10;99.90
9987;DHT22;5033;46.310;11.214;2023-04-25T03:09:35;8.10;99.90
9987;DHT22;5033;46.310;11.214;2023-04-25T03:12:02;8.10;99.90
9987;DHT22;5033;46.310;11.214;2023-04-25T03:14:29;8.10;99.90
9987;DHT22;5033;46.310;11.214;2023-04-25T03:16:57;8.10;99.90
9987;DHT22;5033;46.310;11.214;2023-04-25T03:19:24;8.20;99.90
9987;DHT22;5033;46.310;11.214;2023-04-25T03:21:52;8.20;99.90
9987;DHT22;5033;46.310;11.214;2023-04-25T03:24:20;8.20;99.90
9987;DHT22;5033;46.310;11.214;2023-04-25T03:26:47;8.20;99.90
9987;DHT22;5033;46.310;11.214;2023-04-25T03:29:14;8.30;99.90
9987;DHT22;5033;46.310;11.214;2023-04-25T03:31:41;8.30;99.90
9987;DHT22;5033;46.310;11.214;2023-04-25T03:34:08;8.30;99.90
9987;DHT22;5033;46.310;11.214;2023-04-25T03:36:35;8.30;99.90
9987;DHT22;5033;46.310;11.214;2023-04-25T03:39:04;8.30;99.90
9987;DHT22;5033;46.310;11.214;2023-04-25T03:41:31;8.20;99.90
9987;DHT22;5033;46.310;11.214;2023-04-25T03:43:59;8.20;99.90
9987;DHT22;5033;46.310;11.214;2023-04-25T03:46:26;8.30;99.90
9987;DHT22;5033;46.310;11.214;2023-04-25T03:48:53;8.30;99.90
9987;DHT22;5033;46.310;11.214;2023-04-25T03:51:20;8.30;99.90
9987;DHT22;5033;46.310;11.214;2023-04-25T03:53:47;8.20;99.90
9987;DHT22;5033;46.310;11.214;2023-04-25T03:56:16;8.10;99.90
9987;DHT22;5033;46.310;11.214;2023-04-25T03:58:43;8.10;99.90
9987;DHT22;5033;46.310;11.214;2023-04-25T04:01:11;8.10;99.90
9987;DHT22;5033;46.310;11.214;2023-04-25T04:03:38;8.00;99.90
9987;DHT22;5033;46.310;11.214;2023-04-25T04:06:06;8.00;99.90
9987;DHT22;5033;46.310;11.214;2023-04-25T04:08:33;8.00;99.90
9987;DHT22;5033;46.310;11.214;2023-04-25T04:11:00;8.00;99.90
9987;DHT22;5033;46.310;11.214;2023-04-25T04:13:29;7.90;99.90
9987;DHT22;5033;46.310;11.214;2023-04-25T04:15:56;7.90;99.90
9987;DHT22;5033;46.310;11.214;2023-04-25T04:18:24;7.90;99.90
9987;DHT22;5033;46.310;11.214;2023-04-25T04:20:51;7.90;99.90
9987;DHT22;5033;46.310;11.214;2023-04-25T04:23:19;7.90;99.90
9987;DHT22;5033;46.310;11.214;2023-04-25T04:25:46;7.90;99.90
9987;DHT22;5033;46.310;11.214;2023-04-25T04:28:13;8.00;99.90
9987;DHT22;5033;46.310;11.214;2023-04-25T04:30:43;8.00;99.90
9987;DHT22;5033;46.310;11.214;2023-04-25T04:33:11;8.00;99.90
9987;DHT22;5033;46.310;11.214;2023-04-25T04:35:39;8.10;99.90
9987;DHT22;5033;46.310;11.214;2023-04-25T04:38:07;8.10;99.90
9987;DHT22;5033;46.310;11.214;2023-04-25T04:40:34;8.20;99.90
9987;DHT22;5033;46.310;11.214;2023-04-25T04:43:01;8.20;99.90
9987;DHT22;5033;46.310;11.214;2023-04-25T04:45:29;8.20;99.90
9987;DHT22;5033;46.310;11.214;2023-04-25T04:47:57;8.20;99.90
9987;DHT22;5033;46.310;11.214;2023-04-25T04:50:24;8.20;99.90
9987;DHT22;5033;46.310;11.214;2023-04-25T04:52:52;8.20;99.90
9987;DHT22;5033;46.310;11.214;2023-04-25T04:55:20;8.10;99.90
9987;DHT22;5033;46.310;11.214;2023-04-25T04:57:47;8.10;99.90
9987;DHT22;5033;46.310;11.214;2023-04-25T05:00:16;8.00;99.90
9987;DHT22;5033;46.310;11.214;2023-04-25T05:02:43;7.90;99.90
9987;DHT22;5033;46.310;11.214;2023-04-25T05:05:12;7.90;99.90
9987;DHT22;5033;46.310;11.214;2023-04-25T05:07:39;8.00;99.90
9987;DHT22;5033;46.310;11.214;2023-04-25T05:10:08;8.10;99.90
9987;DHT22;5033;46.310;11.214;2023-04-25T05:12:35;8.10;99.90
9987;DHT22;5033;46.310;11.214;2023-04-25T05:15:02;8.20;99.90
9987;DHT22;5033;46.310;11.214;2023-04-25T05:17:29;8.20;99.90
9987;DHT22;5033;46.310;11.214;2023-04-25T05:19:56;8.20;99.90
9987;DHT22;5033;46.310;11.214;2023-04-25T05:22:25;8.20;99.90
9987;DHT22;5033;46.310;11.214;2023-04-25T05:24:51;8.30;99.90
9987;DHT22;5033;46.310;11.214;2023-04-25T05:27:19;8.30;99.90
9987;DHT22;5033;46.310;11.214;2023-04-25T05:29:46;8.30;99.90
9987;DHT22;5033;46.310;11.214;2023-04-25T05:32:14;8.30;99.90
9987;DHT22;5033;46.310;11.214;2023-04-25T05:34:41;8.40;99.90
9987;DHT22;5033;46.310;11.214;2023-04-25T05:37:08;8.40;99.90
9987;DHT22;5033;46.310;11.214;2023-04-25T05:39:37;8.50;99.90
9987;DHT22;5033;46.310;11.214;2023-04-25T05:42:04;8.60;99.90
9987;DHT22;5033;46.310;11.214;2023-04-25T05:44:32;8.60;99.90
9987;DHT22;5033;46.310;11.214;2023-04-25T05:46:59;8.70;99.90
9987;DHT22;5033;46.310;11.214;2023-04-25T05:49:26;8.70;99.90
9987;DHT22;5033;46.310;11.214;2023-04-25T05:51:53;8.70;99.90
9987;DHT22;5033;46.310;11.214;2023-04-25T05:54:21;8.80;99.90
9987;DHT22;5033;46.310;11.214;2023-04-25T05:56:49;8.80;99.90
9987;DHT22;5033;46.310;11.214;2023-04-25T05:59:16;8.80;99.90
9987;DHT22;5033;46.310;11.214;2023-04-25T06:01:43;8.90;99.90
9987;DHT22;5033;46.310;11.214;2023-04-25T06:04:11;8.80;99.90
9987;DHT22;5033;46.310;11.214;2023-04-25T06:06:38;8.90;99.90
9987;DHT22;5033;46.310;11.214;2023-04-25T06:09:05;8.90;99.90
9987;DHT22;5033;46.310;11.214;2023-04-25T06:11:32;9.10;99.90
9987;DHT22;5033;46.310;11.214;2023-04-25T06:14:00;9.30;99.90
9987;DHT22;5033;46.310;11.214;2023-04-25T06:16:28;9.30;99.90
9987;DHT22;5033;46.310;11.214;2023-04-25T06:18:56;9.30;99.90
9987;DHT22;5033;46.310;11.214;2023-04-25T06:21:23;9.30;99.90
9987;DHT22;5033;46.310;11.214;2023-04-25T06:23:51;9.30;99.90
9987;DHT22;5033;46.310;11.214;2023-04-25T06:26:18;9.40;99.90
9987;DHT22;5033;46.310;11.214;2023-04-25T06:28:45;9.40;99.90
9987;DHT22;5033;46.310;11.214;2023-04-25T06:31:14;9.40;99.90
9987;DHT22;5033;46.310;11.214;2023-04-25T06:33:41;9.50;99.90
9987;DHT22;5033;46.310;11.214;2023-04-25T06:36:08;9.70;99.90
9987;DHT22;5033;46.310;11.214;2023-04-25T06:38:35;10.40;99.90
9987;DHT22;5033;46.310;11.214;2023-04-25T06:41:03;11.20;99.90
9987;DHT22;5033;46.310;11.214;2023-04-25T06:43:30;11.90;99.90
9987;DHT22;5033;46.310;11.214;2023-04-25T06:45:59;12.60;99.90
9987;DHT22;5033;46.310;11.214;2023-04-25T06:48:28;12.90;99.90
9987;DHT22;5033;46.310;11.214;2023-04-25T06:50:55;13.10;99.90
9987;DHT22;5033;46.310;11.214;2023-04-25T06:53:22;13.40;99.90
9987;DHT22;5033;46.310;11.214;2023-04-25T06:55:49;13.70;99.90
9987;DHT22;5033;46.310;11.214;2023-04-25T06:58:16;14.00;99.90
9987;DHT22;5033;46.310;11.214;2023-04-25T07:00:44;14.30;99.90
9987;DHT22;5033;46.310;11.214;2023-04-25T07:03:11;14.40;99.90
9987;DHT22;5033;46.310;11.214;2023-04-25T07:05:40;14.40;99.90
9987;DHT22;5033;46.310;11.214;2023-04-25T07:08:07;14.70;99.90
9987;DHT22;5033;46.310;11.214;2023-04-25T07:10:34;15.20;99.90
9987;DHT22;5033;46.310;11.214;2023-04-25T07:13:01;15.20;99.90
9987;DHT22;5033;46.310;11.214;2023-04-25T07:15:28;15.30;99.90
9987;DHT22;5033;46.310;11.214;2023-04-25T07:17:55;15.30;99.90
9987;DHT22;5033;46.310;11.214;2023-04-25T07:20:22;15.30;99.90
9987;DHT22;5033;46.310;11.214;2023-04-25T07:22:51;15.20;99.90
9987;DHT22;5033;46.310;11.214;2023-04-25T07:25:18;15.00;99.90
9987;DHT22;5033;46.310;11.214;2023-04-25T07:27:45;14.90;99.90
9987;DHT22;5033;46.310;11.214;2023-04-25T07:30:13;14.90;99.90
9987;DHT22;5033;46.310;11.214;2023-04-25T07:32:40;15.00;99.90
9987;DHT22;5033;46.310;11.214;2023-04-25T07:35:08;15.00;99.90
9987;DHT22;5033;46.310;11.214;2023-04-25T07:37:35;14.90;99.90
9987;DHT22;5033;46.310;11.214;2023-04-25T07:40:05;14.80;99.90
9987;DHT22;5033;46.310;11.214;2023-04-25T07:42:33;14.60;99.90
9987;DHT22;5033;46.310;11.214;2023-04-25T07:45:00;13.90;99.90
9987;DHT22;5033;46.310;11.214;2023-04-25T07:47:28;13.50;99.90
9987;DHT22;5033;46.310;11.214;2023-04-25T07:49:55;13.40;99.90
9987;DHT22;5033;46.310;11.214;2023-04-25T07:52:23;13.50;99.90
9987;DHT22;5033;46.310;11.214;2023-04-25T07:54:50;13.60;99.90
9987;DHT22;5033;46.310;11.214;2023-04-25T07:57:19;13.50;99.90
9987;DHT22;5033;46.310;11.214;2023-04-25T07:59:46;13.50;99.90
9987;DHT22;5033;46.310;11.214;2023-04-25T08:02:13;13.40;99.90
9987;DHT22;5033;46.310;11.214;2023-04-25T08:04:40;13.20;99.90
9987;DHT22;5033;46.310;11.214;2023-04-25T08:07:07;13.00;99.90
9987;DHT22;5033;46.310;11.214;2023-04-25T08:09:35;12.70;99.90
9987;DHT22;5033;46.310;11.214;2023-04-25T08:12:02;12.80;99.90
9987;DHT22;5033;46.310;11.214;2023-04-25T08:14:31;13.10;99.90
9987;DHT22;5033;46.310;11.214;2023-04-25T08:17:01;13.50;99.90
9987;DHT22;5033;46.310;11.214;2023-04-25T08:19:29;13.90;99.90
9987;DHT22;5033;46.310;11.214;2023-04-25T08:21:56;14.50;99.90
9987;DHT22;5033;46.310;11.214;2023-04-25T08:24:23;14.90;99.90
9987;DHT22;5033;46.310;11.214;2023-04-25T08:26:51;15.20;99.90
9987;DHT22;5033;46.310;11.214;2023-04-25T08:29:19;15.40;99.90
9987;DHT22;5033;46.310;11.214;2023-04-25T08:31:47;15.40;99.90
9987;DHT22;5033;46.310;11.214;2023-04-25T08:34:16;15.50;99.90
9987;DHT22;5033;46.310;11.214;2023-04-25T08:36:43;15.50;99.90
9987;DHT22;5033;46.310;11.214;2023-04-25T08:39:10;15.50;99.90
9987;DHT22;5033;46.310;11.214;2023-04-25T08:41:38;15.50;99.90
9987;DHT22;5033;46.310;11.214;2023-04-25T08:44:10;15.60;99.90
9987;DHT22;5033;46.310;11.214;2023-04-25T08:46:38;15.80;99.90
9987;DHT22;5033;46.310;11.214;2023-04-25T08:49:08;15.80;99.90
9987;DHT22;5033;46.310;11.214;2023-04-25T08:51:43;15.90;99.90
9987;DHT22;5033;46.310;11.214;2023-04-25T08:54:13;16.00;99.90
9987;DHT22;5033;46.310;11.214;2023-04-25T08:56:43;16.00;99.90
9987;DHT22;5033;46.310;11.214;2023-04-25T08:59:11;16.10;99.90
9987;DHT22;5033;46.310;11.214;2023-04-25T09:01:39;16.00;99.90
9987;DHT22;5033;46.310;11.214;2023-04-25T09:04:07;16.00;99.90
9987;DHT22;5033;46.310;11.214;2023-04-25T09:06:35;16.10;99.90
9987;DHT22;5033;46.310;11.214;2023-04-25T09:09:03;16.00;99.90
9987;DHT22;5033;46.310;11.214;2023-04-25T09:11:31;16.00;99.90
9987;DHT22;5033;46.310;11.214;2023-04-25T09:14:12;16.00;99.90
9987;DHT22;5033;46.310;11.214;2023-04-25T09:16:58;16.20;99.90
9987;DHT22;5033;46.310;11.214;2023-04-25T09:19:28;16.10;99.90
9987;DHT22;5033;46.310;11.214;2023-04-25T09:21:56;16.10;99.90
9987;DHT22;5033;46.310;11.214;2023-04-25T09:24:35;16.20;99.90
9987;DHT22;5033;46.310;11.214;2023-04-25T09:27:06;16.30;99.90
9987;DHT22;5033;46.310;11.214;2023-04-25T09:29:34;16.50;99.90
9987;DHT22;5033;46.310;11.214;2023-04-25T09:32:15;16.60;99.90
9987;DHT22;5033;46.310;11.214;2023-04-25T09:34:45;16.60;99.90
9987;DHT22;5033;46.310;11.214;2023-04-25T09:37:17;16.70;99.90
9987;DHT22;5033;46.310;11.214;2023-04-25T09:39:46;17.00;99.90
9987;DHT22;5033;46.310;11.214;2023-04-25T09:42:14;17.00;99.90
9987;DHT22;5033;46.310;11.214;2023-04-25T09:44:43;17.10;99.90
9987;DHT22;5033;46.310;11.214;2023-04-25T09:47:11;17.50;99.90
9987;DHT22;5033;46.310;11.214;2023-04-25T09:49:40;17.60;99.90
9987;DHT22;5033;46.310;11.214;2023-04-25T09:52:13;17.70;99.90
9987;DHT22;5033;46.310;11.214;2023-04-25T09:54:41;17.60;99.90
9987;DHT22;5033;46.310;11.214;2023-04-25T09:57:11;17.80;99.90
9987;DHT22;5033;46.310;11.214;2023-04-25T09:59:43;18.00;99.90
9987;DHT22;5033;46.310;11.214;2023-04-25T10:02:11;18.30;99.90
9987;DHT22;5033;46.310;11.214;2023-04-25T10:04:39;18.30;99.90
9987;DHT22;5033;46.310;11.214;2023-04-25T10:07:08;18.00;99.90
9987;DHT22;5033;46.310;11.214;2023-04-25T10:09:39;17.60;99.90
9987;DHT22;5033;46.310;11.214;2023-04-25T10:12:07;17.10;99.90
9987;DHT22;5033;46.310;11.214;2023-04-25T10:14:34;16.90;99.90
9987;DHT22;5033;46.310;11.214;2023-04-25T10:17:02;16.70;99.90
9987;DHT22;5033;46.310;11.214;2023-04-25T10:19:29;17.00;99.90
9987;DHT22;5033;46.310;11.214;2023-04-25T10:22:03;17.30;99.90
9987;DHT22;5033;46.310;11.214;2023-04-25T10:24:31;17.20;99.90
9987;DHT22;5033;46.310;11.214;2023-04-25T10:27:00;17.00;99.90
9987;DHT22;5033;46.310;11.214;2023-04-25T10:29:28;16.80;99.90
9987;DHT22;5033;46.310;11.214;2023-04-25T10:31:55;16.80;99.90
9987;DHT22;5033;46.310;11.214;2023-04-25T10:34:38;16.90;99.90
9987;DHT22;5033;46.310;11.214;2023-04-25T10:37:09;16.70;99.90
9987;DHT22;5033;46.310;11.214;2023-04-25T10:39:38;16.60;99.90
9987;DHT22;5033;46.310;11.214;2023-04-25T10:42:07;16.50;99.90
9987;DHT22;5033;46.310;11.214;2023-04-25T10:44:34;16.40;99.90
9987;DHT22;5033;46.310;11.214;2023-04-25T10:47:03;16.20;99.90
9987;DHT22;5033;46.310;11.214;2023-04-25T10:49:34;16.20;99.90
9987;DHT22;5033;46.310;11.214;2023-04-25T10:52:18;16.30;99.90
9987;DHT22;5033;46.310;11.214;2023-04-25T10:54:51;16.30;99.90
9987;DHT22;5033;46.310;11.214;2023-04-25T10:57:39;16.20;99.90
9987;DHT22;5033;46.310;11.214;2023-04-25T11:00:09;16.00;99.90
9987;DHT22;5033;46.310;11.214;2023-04-25T11:02:40;15.80;99.90
9987;DHT22;5033;46.310;11.214;2023-04-25T11:05:09;15.60;99.90
9987;DHT22;5033;46.310;11.214;2023-04-25T11:07:39;15.50;99.90
9987;DHT22;5033;46.310;11.214;2023-04-25T11:10:09;15.40;99.90
9987;DHT22;5033;46.310;11.214;2023-04-25T11:12:38;15.30;99.90
9987;DHT22;5033;46.310;11.214;2023-04-25T11:15:06;15.20;99.90
9987;DHT22;5033;46.310;11.214;2023-04-25T11:17:34;15.30;99.90
9987;DHT22;5033;46.310;11.214;2023-04-25T11:20:01;16.00;99.90
9987;DHT22;5033;46.310;11.214;2023-04-25T11:22:32;16.70;99.90
9987;DHT22;5033;46.310;11.214;2023-04-25T11:25:05;17.40;99.90
9987;DHT22;5033;46.310;11.214;2023-04-25T11:27:32;18.00;99.90
9987;DHT22;5033;46.310;11.214;2023-04-25T11:30:12;18.30;99.90
9987;DHT22;5033;46.310;11.214;2023-04-25T11:32:40;18.70;99.90
9987;DHT22;5033;46.310;11.214;2023-04-25T11:35:09;19.10;99.90
9987;DHT22;5033;46.310;11.214;2023-04-25T11:37:36;19.00;99.90
9987;DHT22;5033;46.310;11.214;2023-04-25T11:40:06;18.60;99.90
9987;DHT22;5033;46.310;11.214;2023-04-25T11:42:36;18.40;99.90
9987;DHT22;5033;46.310;11.214;2023-04-25T11:45:05;18.30;99.90
9987;DHT22;5033;46.310;11.214;2023-04-25T11:47:34;17.80;99.90
9987;DHT22;5033;46.310;11.214;2023-04-25T11:50:02;17.30;99.90
9987;DHT22;5033;46.310;11.214;2023-04-25T11:52:36;17.10;99.90
9987;DHT22;5033;46.310;11.214;2023-04-25T11:55:05;17.30;99.90
9987;DHT22;5033;46.310;11.214;2023-04-25T11:57:33;17.90;99.90
9987;DHT22;5033;46.310;11.214;2023-04-25T12:00:09;18.40;99.90
9987;DHT22;5033;46.310;11.214;2023-04-25T12:02:40;19.00;99.90
9987;DHT22;5033;46.310;11.214;2023-04-25T12:05:08;19.10;99.90
9987;DHT22;5033;46.310;11.214;2023-04-25T12:07:35;19.00;99.90
9987;DHT22;5033;46.310;11.214;2023-04-25T12:10:07;19.00;99.90
9987;DHT22;5033;46.310;11.214;2023-04-25T12:12:35;19.00;99.90
9987;DHT22;5033;46.310;11.214;2023-04-25T12:15:09;18.90;99.90
9987;DHT22;5033;46.310;11.214;2023-04-25T12:17:38;19.00;99.90
9987;DHT22;5033;46.310;11.214;2023-04-25T12:20:07;19.20;99.90
9987;DHT22;5033;46.310;11.214;2023-04-25T12:22:35;19.40;99.90
9987;DHT22;5033;46.310;11.214;2023-04-25T12:25:03;19.50;99.90
9987;DHT22;5033;46.310;11.214;2023-04-25T12:27:31;19.50;99.90
9987;DHT22;5033;46.310;11.214;2023-04-25T12:29:59;19.70;99.90
9987;DHT22;5033;46.310;11.214;2023-04-25T12:32:27;19.80;99.90
9987;DHT22;5033;46.310;11.214;2023-04-25T12:34:56;19.80;99.90
9987;DHT22;5033;46.310;11.214;2023-04-25T12:37:23;19.60;99.90
9987;DHT22;5033;46.310;11.214;2023-04-25T12:39:50;19.50;99.90
9987;DHT22;5033;46.310;11.214;2023-04-25T12:42:18;19.40;99.90
9987;DHT22;5033;46.310;11.214;2023-04-25T12:44:45;19.10;99.90
9987;DHT22;5033;46.310;11.214;2023-04-25T12:47:12;19.00;99.90
9987;DHT22;5033;46.310;11.214;2023-04-25T12:49:39;19.10;99.90
9987;DHT22;5033;46.310;11.214;2023-04-25T12:52:08;18.60;99.90
9987;DHT22;5033;46.310;11.214;2023-04-25T12:54:35;18.10;99.90
9987;DHT22;5033;46.310;11.214;2023-04-25T12:57:02;17.70;99.90
9987;DHT22;5033;46.310;11.214;2023-04-25T12:59:30;17.40;99.90
9987;DHT22;5033;46.310;11.214;2023-04-25T13:01:57;17.20;99.90
9987;DHT22;5033;46.310;11.214;2023-04-25T13:04:24;17.10;99.90
9987;DHT22;5033;46.310;11.214;2023-04-25T13:06:52;17.00;99.90
9987;DHT22;5033;46.310;11.214;2023-04-25T13:09:20;17.00;99.90
9987;DHT22;5033;46.310;11.214;2023-04-25T13:11:47;17.10;99.90
9987;DHT22;5033;46.310;11.214;2023-04-25T13:14:14;17.10;99.90
9987;DHT22;5033;46.310;11.214;2023-04-25T13:16:42;17.00;99.90
9987;DHT22;5033;46.310;11.214;2023-04-25T13:19:09;17.00;99.90
9987;DHT22;5033;46.310;11.214;2023-04-25T13:21:37;17.10;99.90
9987;DHT22;5033;46.310;11.214;2023-04-25T13:24:04;17.00;99.90
9987;DHT22;5033;46.310;11.214;2023-04-25T13:26:33;16.90;99.90
9987;DHT22;5033;46.310;11.214;2023-04-25T13:29:01;16.70;99.90
9987;DHT22;5033;46.310;11.214;2023-04-25T13:31:29;16.60;99.90
9987;DHT22;5033;46.310;11.214;2023-04-25T13:33:57;16.40;99.90
9987;DHT22;5033;46.310;11.214;2023-04-25T13:36:24;16.30;99.90
9987;DHT22;5033;46.310;11.214;2023-04-25T13:38:51;16.10;99.90
9987;DHT22;5033;46.310;11.214;2023-04-25T13:41:18;16.00;99.90
9987;DHT22;5033;46.310;11.214;2023-04-25T13:43:47;16.00;99.90
9987;DHT22;5033;46.310;11.214;2023-04-25T13:46:14;15.90;99.90
9987;DHT22;5033;46.310;11.214;2023-04-25T13:48:42;15.90;99.90
9987;DHT22;5033;46.310;11.214;2023-04-25T13:51:14;16.00;99.90
9987;DHT22;5033;46.310;11.214;2023-04-25T13:53:43;16.40;99.90
9987;DHT22;5033;46.310;11.214;2023-04-25T13:56:10;16.50;99.90
9987;DHT22;5033;46.310;11.214;2023-04-25T13:58:37;16.50;99.90
9987;DHT22;5033;46.310;11.214;2023-04-25T14:01:06;16.50;99.90
9987;DHT22;5033;46.310;11.214;2023-04-25T14:03:33;16.40;99.90
9987;DHT22;5033;46.310;11.214;2023-04-25T14:06:00;16.60;99.90
9987;DHT22;5033;46.310;11.214;2023-04-25T14:08:27;17.10;99.90
9987;DHT22;5033;46.310;11.214;2023-04-25T14:10:55;17.40;99.90
9987;DHT22;5033;46.310;11.214;2023-04-25T14:13:22;17.80;99.90
9987;DHT22;5033;46.310;11.214;2023-04-25T14:15:49;17.90;99.90
9987;DHT22;5033;46.310;11.214;2023-04-25T14:18:18;18.10;99.90
9987;DHT22;5033;46.310;11.214;2023-04-25T14:20:45;18.20;99.90
9987;DHT22;5033;46.310;11.214;2023-04-25T14:23:13;18.10;99.90
9987;DHT22;5033;46.310;11.214;2023-04-25T14:25:40;18.00;99.90
9987;DHT22;5033;46.310;11.214;2023-04-25T14:28:08;17.60;99.90
9987;DHT22;5033;46.310;11.214;2023-04-25T14:30:36;17.20;99.90
9987;DHT22;5033;46.310;11.214;2023-04-25T14:33:03;16.90;99.90
9987;DHT22;5033;46.310;11.214;2023-04-25T14:35:32;16.80;99.90
9987;DHT22;5033;46.310;11.214;2023-04-25T14:37:59;17.20;99.90
9987;DHT22;5033;46.310;11.214;2023-04-25T14:40:26;17.60;99.90
9987;DHT22;5033;46.310;11.214;2023-04-25T14:42:54;17.90;99.90
9987;DHT22;5033;46.310;11.214;2023-04-25T14:45:21;18.10;99.90
9987;DHT22;5033;46.310;11.214;2023-04-25T14:47:49;18.20;99.90
9987;DHT22;5033;46.310;11.214;2023-04-25T14:50:16;18.30;99.90
9987;DHT22;5033;46.310;11.214;2023-04-25T14:52:45;18.20;99.90
9987;DHT22;5033;46.310;11.214;2023-04-25T14:55:12;18.20;99.90
9987;DHT22;5033;46.310;11.214;2023-04-25T14:57:39;18.30;99.90
9987;DHT22;5033;46.310;11.214;2023-04-25T15:00:08;18.40;99.90
9987;DHT22;5033;46.310;11.214;2023-04-25T15:02:36;18.60;99.90
9987;DHT22;5033;46.310;11.214;2023-04-25T15:05:03;18.80;99.90
9987;DHT22;5033;46.310;11.214;2023-04-25T15:07:30;18.70;99.90
9987;DHT22;5033;46.310;11.214;2023-04-25T15:10:00;18.70;99.90
9987;DHT22;5033;46.310;11.214;2023-04-25T15:12:28;18.80;99.90
9987;DHT22;5033;46.310;11.214;2023-04-25T15:14:55;18.80;99.90
9987;DHT22;5033;46.310;11.214;2023-04-25T15:17:22;18.50;99.90
9987;DHT22;5033;46.310;11.214;2023-04-25T15:19:50;18.20;99.90
9987;DHT22;5033;46.310;11.214;2023-04-25T15:22:17;18.00;99.90
9987;DHT22;5033;46.310;11.214;2023-04-25T15:24:44;17.60;99.90
9987;DHT22;5033;46.310;11.214;2023-04-25T15:27:13;17.50;99.90
9987;DHT22;5033;46.310;11.214;2023-04-25T15:29:40;17.50;99.90
9987;DHT22;5033;46.310;11.214;2023-04-25T15:32:07;17.40;99.90
9987;DHT22;5033;46.310;11.214;2023-04-25T15:34:34;17.40;99.90
9987;DHT22;5033;46.310;11.214;2023-04-25T15:37:02;17.60;99.90
9987;DHT22;5033;46.310;11.214;2023-04-25T15:39:29;17.50;99.90
9987;DHT22;5033;46.310;11.214;2023-04-25T15:41:57;17.30;99.90
9987;DHT22;5033;46.310;11.214;2023-04-25T15:44:25;17.10;99.90
9987;DHT22;5033;46.310;11.214;2023-04-25T15:46:52;17.00;99.90
9987;DHT22;5033;46.310;11.214;2023-04-25T15:49:19;16.80;99.90
9987;DHT22;5033;46.310;11.214;2023-04-25T15:51:47;16.50;99.90
9987;DHT22;5033;46.310;11.214;2023-04-25T15:54:14;16.30;99.90
9987;DHT22;5033;46.310;11.214;2023-04-25T15:56:41;16.20;99.90